createdAt,value
2019-06-07T00:01:39.943Z,14.10
2019-06-07T00:04:11.544Z,14.10
2019-06-07T00:06:42.331Z,14.10
2019-06-07T00:09:14.683Z,14.00
2019-06-07T00:11:46.326Z,14.00
2019-06-07T00:14:18.281Z,14.00
2019-06-07T00:16:48.668Z,14.00
2019-06-07T00:19:19.147Z,14.00
2019-06-07T00:24:22.081Z,13.90
2019-06-07T00:26:58.744Z,13.90
2019-06-07T00:29:27.578Z,13.90
2019-06-07T00:31:57.957Z,13.80
2019-06-07T00:34:28.304Z,13.80
2019-06-07T00:36:58.676Z,13.80
2019-06-07T00:39:29.032Z,13.70
2019-06-07T00:41:59.336Z,13.70
2019-06-07T00:44:29.661Z,13.70
2019-06-07T00:47:00.107Z,13.70
2019-06-07T00:49:40.725Z,13.70
2019-06-07T00:52:02.463Z,13.80
2019-06-07T00:54:33.101Z,13.80
2019-06-07T00:57:03.465Z,13.70
2019-06-07T00:59:33.880Z,13.70
2019-06-07T01:02:05.485Z,13.80
2019-06-07T01:04:35.955Z,13.80
2019-06-07T01:07:06.462Z,13.70
2019-06-07T01:09:36.747Z,13.70
2019-06-07T01:12:07.118Z,13.70
2019-06-07T01:14:37.679Z,13.70
2019-06-07T01:17:39.844Z,13.70
2019-06-07T01:19:58.472Z,13.60
2019-06-07T01:22:29.966Z,13.60
2019-06-07T01:25:00.239Z,13.60
2019-06-07T01:27:30.553Z,13.60
2019-06-07T01:30:00.842Z,13.60
2019-06-07T01:32:31.972Z,13.60
2019-06-07T01:35:05.899Z,13.70
2019-06-07T01:37:36.273Z,13.70
2019-06-07T01:40:07.827Z,13.60
2019-06-07T01:42:38.351Z,13.60
2019-06-07T01:45:11.239Z,13.60
2019-06-07T01:47:41.540Z,13.60
2019-06-07T01:50:12.236Z,13.60
2019-06-07T01:52:42.626Z,13.60
2019-06-07T01:55:13.714Z,13.70
2019-06-07T01:57:48.307Z,13.70
2019-06-07T02:00:21.418Z,13.60
2019-06-07T02:02:50.875Z,13.60
2019-06-07T02:05:23.321Z,13.60
2019-06-07T02:07:53.675Z,13.60
2019-06-07T02:10:27.493Z,13.60
2019-06-07T02:12:56.079Z,13.60
2019-06-07T02:15:30.716Z,13.60
2019-06-07T02:17:58.496Z,13.60
2019-06-07T02:20:33.499Z,13.60
2019-06-07T02:23:00.830Z,13.60
2019-06-07T02:25:48.471Z,13.60
2019-06-07T02:28:26.669Z,13.70
2019-06-07T02:30:44.017Z,13.60
2019-06-07T02:33:07.313Z,13.70
2019-06-07T02:35:40.656Z,13.70
2019-06-07T02:38:10.603Z,13.70
2019-06-07T02:40:40.968Z,13.70
2019-06-07T02:43:11.252Z,13.70
2019-06-07T02:45:43.588Z,13.60
2019-06-07T02:48:13.534Z,13.60
2019-06-07T02:50:45.454Z,13.60
2019-06-07T02:53:15.793Z,13.60
2019-06-07T02:56:34.253Z,13.60
2019-06-07T02:58:18.313Z,13.50
2019-06-07T03:01:09.168Z,13.60
2019-06-07T03:03:24.591Z,13.50
2019-06-07T03:05:55.628Z,13.50
2019-06-07T03:08:28.393Z,13.50
2019-06-07T03:10:59.436Z,13.50
2019-06-07T03:13:37.420Z,13.50
2019-06-07T03:16:09.671Z,13.50
2019-06-07T03:19:01.525Z,13.50
2019-06-07T03:21:36.501Z,13.40
2019-06-07T03:24:06.924Z,13.40
2019-06-07T03:27:31.432Z,13.40
2019-06-07T03:29:10.387Z,13.40
2019-06-07T03:31:47.128Z,13.40
2019-06-07T03:34:12.741Z,13.40
2019-06-07T03:36:43.035Z,13.50
2019-06-07T03:39:13.421Z,13.50
2019-06-07T03:42:04.533Z,13.50
2019-06-07T03:44:15.930Z,13.50
2019-06-07T03:46:46.225Z,13.50
2019-06-07T03:49:16.509Z,13.60
2019-06-07T03:51:46.816Z,13.60
2019-06-07T03:54:17.096Z,13.60
2019-06-07T03:56:47.400Z,13.60
2019-06-07T03:59:17.680Z,13.60
2019-06-07T04:01:48.003Z,13.70
2019-06-07T04:04:18.279Z,13.70
2019-06-07T04:06:48.579Z,13.80
2019-06-07T04:09:18.977Z,13.90
2019-06-07T04:11:49.353Z,14.00
2019-06-07T04:14:19.816Z,14.10
2019-06-07T04:16:50.120Z,14.20
2019-06-07T04:19:20.478Z,14.30
2019-06-07T04:21:50.829Z,14.50
2019-06-07T04:24:21.205Z,14.70
2019-06-07T04:26:51.572Z,14.80
2019-06-07T04:29:33.230Z,15.00
2019-06-07T04:31:53.978Z,15.30
2019-06-07T04:34:24.473Z,15.50
2019-06-07T04:36:59.292Z,15.80
2019-06-07T04:39:33.494Z,16.00
2019-06-07T04:42:02.815Z,16.30
2019-06-07T04:44:37.194Z,16.60
2019-06-07T04:47:09.464Z,16.90
2019-06-07T04:49:43.880Z,17.20
2019-06-07T04:52:14.872Z,17.80
2019-06-07T04:54:45.882Z,18.20
2019-06-07T04:57:16.454Z,18.60
2019-06-07T05:00:11.729Z,19.00
2019-06-07T05:02:20.162Z,19.30
2019-06-07T05:04:50.492Z,19.60
2019-06-07T05:07:20.855Z,19.90
2019-06-07T05:09:51.087Z,20.20
2019-06-07T05:12:21.379Z,20.50
2019-06-07T05:14:51.739Z,20.90
2019-06-07T05:17:22.041Z,21.20
2019-06-07T05:19:52.479Z,21.50
2019-06-07T05:22:23.841Z,21.80
2019-06-07T05:24:54.232Z,22.10
2019-06-07T05:27:24.521Z,22.30
2019-06-07T05:30:09.653Z,22.30
2019-06-07T05:32:26.928Z,22.30
2019-06-07T05:34:57.310Z,22.30
2019-06-07T05:37:27.657Z,22.20
2019-06-07T05:39:58.140Z,22.20
2019-06-07T05:42:28.407Z,22.10
2019-06-07T05:44:58.791Z,22.00
2019-06-07T05:47:29.103Z,22.00
2019-06-07T05:49:59.383Z,22.20
2019-06-07T05:52:29.729Z,22.30
2019-06-07T05:55:00.028Z,22.20
2019-06-07T05:57:30.317Z,22.00
2019-06-07T06:00:00.676Z,21.90
2019-06-07T06:02:30.975Z,22.00
2019-06-07T06:05:01.340Z,22.10
2019-06-07T06:07:31.710Z,22.00
2019-06-07T06:10:02.030Z,22.00
2019-06-07T06:12:37.308Z,22.00
2019-06-07T06:15:06.194Z,22.00
2019-06-07T06:17:40.555Z,22.10
2019-06-07T06:20:09.710Z,22.30
2019-06-07T06:22:44.056Z,22.30
2019-06-07T06:30:18.822Z,23.30
2019-06-07T06:32:56.868Z,23.80
2019-06-07T06:35:21.362Z,24.30
2019-06-07T06:37:53.471Z,24.70
2019-06-07T06:40:24.490Z,24.80
2019-06-07T06:42:55.115Z,24.90
2019-06-07T06:45:25.574Z,25.00
2019-06-07T06:47:55.926Z,25.00
2019-06-07T06:50:26.303Z,24.80
2019-06-07T06:52:56.716Z,24.60
2019-06-07T06:55:27.345Z,24.50
2019-06-07T06:57:57.698Z,24.30
2019-06-07T07:01:05.977Z,24.30
2019-06-07T07:06:24.050Z,24.10
2019-06-07T07:08:31.081Z,23.80
2019-06-07T07:11:01.387Z,23.40
2019-06-07T07:13:31.712Z,23.20
2019-06-07T07:16:02.043Z,23.10
2019-06-07T07:18:32.357Z,23.00
2019-06-07T07:21:02.742Z,22.90
2019-06-07T07:23:33.017Z,22.80
2019-06-07T07:26:03.322Z,22.70
2019-06-07T07:28:33.735Z,22.60
2019-06-07T07:31:04.135Z,22.50
2019-06-07T07:34:20.798Z,22.60
2019-06-07T07:36:28.141Z,22.80
2019-06-07T07:38:38.538Z,23.10
2019-06-07T07:41:15.181Z,23.60
2019-06-07T07:43:41.048Z,24.10
2019-06-07T07:46:28.619Z,24.60
2019-06-07T07:48:43.817Z,25.40
2019-06-07T07:51:14.165Z,26.30
2019-06-07T07:53:56.018Z,27.00
2019-06-07T07:56:16.527Z,27.70
2019-06-07T07:58:50.398Z,28.30
2019-06-07T08:01:18.826Z,28.80
2019-06-07T08:03:50.699Z,29.30
2019-06-07T08:06:21.302Z,29.80
2019-06-07T08:08:55.804Z,30.10
2019-06-07T08:11:24.020Z,30.40
2019-06-07T08:13:57.322Z,30.80
2019-06-07T08:16:26.449Z,31.20
2019-06-07T08:19:03.501Z,31.30
2019-06-07T08:21:30.348Z,31.30
2019-06-07T08:24:04.669Z,31.20
2019-06-07T08:26:32.704Z,31.00
2019-06-07T08:29:03.390Z,30.90
2019-06-07T08:31:34.719Z,30.80
2019-06-07T08:34:05.698Z,30.70
2019-06-07T08:36:42.426Z,31.00
2019-06-07T08:39:09.049Z,31.20
2019-06-07T08:41:53.442Z,31.40
2019-06-07T08:44:23.392Z,31.70
2019-06-07T08:46:43.317Z,31.90
2019-06-07T08:49:14.593Z,32.10
2019-06-07T08:51:45.081Z,32.30
2019-06-07T08:54:22.707Z,32.70
2019-06-07T08:56:47.357Z,33.10
2019-06-07T08:59:17.660Z,33.40
2019-06-07T09:01:48.120Z,33.70
2019-06-07T09:04:18.646Z,34.10
2019-06-07T09:09:22.209Z,34.20
2019-06-07T09:11:57.155Z,34.00
2019-06-07T09:14:27.240Z,33.80
2019-06-07T09:17:01.266Z,34.10
2019-06-07T09:19:29.767Z,34.40
2019-06-07T09:22:04.684Z,34.70
2019-06-07T09:24:32.131Z,34.90
2019-06-07T09:27:07.175Z,35.00
2019-06-07T09:29:35.493Z,35.20
2019-06-07T09:32:11.978Z,35.40
2019-06-07T09:34:38.045Z,35.30
2019-06-07T09:37:54.231Z,35.10
2019-06-07T09:39:40.258Z,35.00
2019-06-07T09:42:12.658Z,35.00
2019-06-07T09:44:42.605Z,35.10
2019-06-07T09:47:30.988Z,35.20
2019-06-07T09:49:44.958Z,35.20
2019-06-07T09:52:15.269Z,35.10
2019-06-07T09:57:18.197Z,34.50
2019-06-07T09:59:48.506Z,34.20
2019-06-07T10:02:18.815Z,34.10
2019-06-07T10:04:49.079Z,34.30
2019-06-07T10:07:31.184Z,34.80
2019-06-07T10:12:24.245Z,35.60
2019-06-07T10:14:54.672Z,35.90
2019-06-07T10:17:24.994Z,36.10
2019-06-07T10:19:55.411Z,36.20
2019-06-07T10:22:25.719Z,36.40
2019-06-07T10:24:55.992Z,36.70
2019-06-07T10:27:26.376Z,36.80
2019-06-07T10:29:56.751Z,36.90
2019-06-07T10:32:27.122Z,37.20
2019-06-07T10:34:57.482Z,37.40
2019-06-07T10:37:27.936Z,37.40
2019-06-07T10:39:58.342Z,37.60
2019-06-07T10:42:28.703Z,37.70
2019-06-07T10:44:59.124Z,37.80
2019-06-07T10:47:29.698Z,37.90
2019-06-07T10:50:00.248Z,38.10
2019-06-07T10:52:30.626Z,38.40
2019-06-07T10:55:00.897Z,38.70
2019-06-07T10:57:31.402Z,38.80
2019-06-07T11:00:03.361Z,38.90
2019-06-07T11:02:35.129Z,38.90
2019-06-07T11:05:08.177Z,38.40
2019-06-07T11:07:38.923Z,38.10
2019-06-07T11:10:15.627Z,38.10
2019-06-07T11:12:41.439Z,38.20
2019-06-07T11:15:13.153Z,38.10
2019-06-07T11:17:43.585Z,38.20
2019-06-07T11:20:14.470Z,38.20
2019-06-07T11:22:44.907Z,38.10
2019-06-07T11:25:16.952Z,38.10
2019-06-07T11:27:48.387Z,37.70
2019-06-07T11:30:19.011Z,37.20
2019-06-07T11:32:49.368Z,36.70
2019-06-07T11:35:19.946Z,36.20
2019-06-07T11:37:50.252Z,35.70
2019-06-07T11:40:35.691Z,35.40
2019-06-07T11:42:52.978Z,35.30
2019-06-07T11:45:23.311Z,35.20
2019-06-07T11:47:53.883Z,35.30
2019-06-07T11:50:24.315Z,35.40
2019-06-07T11:52:54.595Z,35.60
2019-06-07T11:55:24.886Z,36.00
2019-06-07T11:57:55.244Z,36.30
2019-06-07T12:00:26.481Z,36.60
2019-06-07T12:02:56.842Z,36.90
2019-06-07T12:05:27.272Z,37.10
2019-06-07T12:07:57.628Z,37.20
2019-06-07T12:10:41.828Z,37.10
2019-06-07T12:12:59.957Z,37.20
2019-06-07T12:15:30.255Z,37.20
2019-06-07T12:18:00.589Z,37.20
2019-06-07T12:20:30.971Z,37.30
2019-06-07T12:23:01.425Z,37.40
2019-06-07T12:25:31.729Z,37.30
2019-06-07T12:28:02.021Z,37.00
2019-06-07T12:30:32.447Z,36.60
2019-06-07T12:33:02.734Z,36.10
2019-06-07T12:35:33.046Z,35.70
2019-06-07T12:38:03.447Z,35.30
2019-06-07T12:40:33.863Z,34.90
2019-06-07T12:43:04.304Z,34.60
2019-06-07T12:45:44.421Z,34.30
2019-06-07T12:48:06.697Z,34.00
2019-06-07T12:50:43.002Z,33.70
2019-06-07T12:53:09.099Z,33.50
2019-06-07T12:55:39.423Z,33.30
2019-06-07T12:58:09.749Z,33.10
2019-06-07T13:00:41.039Z,32.90
2019-06-07T13:03:11.320Z,32.70
2019-06-07T13:05:41.626Z,32.60
2019-06-07T13:08:12.253Z,32.50
2019-06-07T13:10:42.792Z,32.40
2019-06-07T13:13:13.203Z,32.30
2019-06-07T13:15:43.593Z,32.20
2019-06-07T13:18:15.176Z,32.00
2019-06-07T13:20:46.025Z,32.00
2019-06-07T13:23:16.464Z,31.90
2019-06-07T13:25:46.861Z,31.70
2019-06-07T13:28:18.614Z,31.60
2019-06-07T13:30:49.192Z,31.50
2019-06-07T13:33:21.490Z,31.40
2019-06-07T13:35:51.459Z,31.40
2019-06-07T13:38:25.817Z,31.30
2019-06-07T13:40:57.063Z,31.30
2019-06-07T13:43:28.172Z,31.20
2019-06-07T13:45:58.657Z,31.20
2019-06-07T13:48:29.928Z,31.20
2019-06-07T13:51:00.362Z,31.10
2019-06-07T13:53:30.679Z,31.10
2019-06-07T13:56:00.941Z,31.10
2019-06-07T13:58:31.258Z,31.10
2019-06-07T14:01:01.523Z,31.10
2019-06-07T14:03:34.018Z,31.10
2019-06-07T14:06:04.325Z,31.10
2019-06-07T14:08:34.703Z,31.10
2019-06-07T14:11:05.058Z,31.20
2019-06-07T14:13:35.371Z,31.10
2019-06-07T14:16:05.729Z,31.10
2019-06-07T14:18:36.174Z,31.10
2019-06-07T14:21:06.538Z,31.10
2019-06-07T14:23:48.324Z,31.10
2019-06-07T14:26:08.815Z,31.10
2019-06-07T14:28:39.097Z,31.10
2019-06-07T14:31:09.375Z,31.10
2019-06-07T14:33:39.724Z,31.10
2019-06-07T14:36:10.197Z,31.10
2019-06-07T14:38:40.564Z,31.10
2019-06-07T14:41:10.941Z,31.10
2019-06-07T14:43:41.409Z,31.20
2019-06-07T14:46:11.925Z,31.20
2019-06-07T14:48:42.346Z,31.20
2019-06-07T14:51:12.612Z,31.20
2019-06-07T14:53:42.892Z,31.20
2019-06-07T14:56:13.184Z,31.20
2019-06-07T14:58:43.717Z,31.20
2019-06-07T15:01:14.012Z,31.20
2019-06-07T15:03:44.490Z,31.20
2019-06-07T15:06:14.812Z,31.20
2019-06-07T15:08:45.149Z,31.20
2019-06-07T15:11:15.562Z,31.20
2019-06-07T15:13:45.889Z,31.20
2019-06-07T15:16:17.431Z,31.30
2019-06-07T15:18:47.766Z,31.30
2019-06-07T15:21:18.083Z,31.30
2019-06-07T15:23:49.416Z,31.30
2019-06-07T15:26:19.849Z,31.30
2019-06-07T15:28:50.201Z,31.30
2019-06-07T15:31:20.640Z,31.30
2019-06-07T15:33:50.975Z,31.20
2019-06-07T15:36:21.297Z,31.30
2019-06-07T15:38:51.720Z,31.20
2019-06-07T15:41:22.214Z,31.20
2019-06-07T15:43:52.513Z,31.10
2019-06-07T15:46:22.866Z,31.10
2019-06-07T15:48:53.220Z,31.10
2019-06-07T15:51:23.690Z,31.10
2019-06-07T15:53:53.975Z,31.10
2019-06-07T15:56:24.278Z,31.10
2019-06-07T15:58:54.672Z,31.10
2019-06-07T16:01:25.058Z,31.10
2019-06-07T16:03:55.365Z,31.10
2019-06-07T16:06:25.828Z,31.10
2019-06-07T16:08:57.261Z,31.00
2019-06-07T16:11:27.636Z,31.00
2019-06-07T16:13:57.986Z,31.00
2019-06-07T16:16:28.333Z,31.00
2019-06-07T16:18:58.871Z,31.00
2019-06-07T16:21:29.250Z,31.00
2019-06-07T16:23:59.598Z,31.00
2019-06-07T16:26:29.977Z,31.00
2019-06-07T16:29:01.950Z,31.00
2019-06-07T16:31:32.256Z,31.00
2019-06-07T16:34:02.759Z,31.00
2019-06-07T16:36:33.427Z,31.10
2019-06-07T16:39:05.648Z,31.10
2019-06-07T16:41:36.506Z,31.10
2019-06-07T16:44:07.105Z,31.10
2019-06-07T16:46:38.658Z,31.20
2019-06-07T16:49:09.950Z,31.20
2019-06-07T16:51:41.296Z,31.10
2019-06-07T16:54:11.683Z,31.10
2019-06-07T16:56:45.659Z,31.10
2019-06-07T16:59:14.021Z,31.10
2019-06-07T17:01:45.301Z,31.10
2019-06-07T17:04:16.164Z,31.00
2019-06-07T17:06:48.183Z,30.90
2019-06-07T17:09:18.715Z,30.90
2019-06-07T17:11:48.981Z,30.90
2019-06-07T17:14:19.284Z,30.80
2019-06-07T17:16:50.282Z,30.80
2019-06-07T17:19:20.916Z,30.70
2019-06-07T17:21:51.188Z,30.60
2019-06-07T17:24:21.645Z,30.50
2019-06-07T17:26:52.009Z,30.40
2019-06-07T17:29:23.371Z,30.40
2019-06-07T17:31:56.697Z,30.40
2019-06-07T17:34:25.660Z,30.40
2019-06-07T17:36:56.121Z,30.50
2019-06-07T17:39:26.453Z,30.50
2019-06-07T17:42:02.090Z,30.50
2019-06-07T17:44:28.998Z,30.50
2019-06-07T17:46:59.274Z,30.50
2019-06-07T17:49:41.751Z,30.40
2019-06-07T17:52:12.027Z,30.30
2019-06-07T17:54:43.789Z,30.20
2019-06-07T17:57:14.287Z,30.10
2019-06-07T17:59:44.799Z,30.00
2019-06-07T18:02:15.795Z,29.90
2019-06-07T18:04:47.278Z,29.90
2019-06-07T18:07:18.978Z,29.80
2019-06-07T18:09:51.581Z,29.80
2019-06-07T18:12:21.898Z,29.70
2019-06-07T18:14:52.449Z,29.60
2019-06-07T18:17:34.135Z,29.60
2019-06-07T18:19:55.287Z,29.50
2019-06-07T18:22:25.712Z,29.30
2019-06-07T18:24:56.183Z,29.20
2019-06-07T18:27:26.606Z,29.10
2019-06-07T18:29:56.957Z,29.00
2019-06-07T18:32:27.319Z,28.80
2019-06-07T18:34:57.580Z,28.70
2019-06-07T18:37:27.954Z,28.60
2019-06-07T18:40:00.285Z,28.50
2019-06-07T18:42:30.708Z,28.40
2019-06-07T18:45:00.978Z,28.20
2019-06-07T18:47:31.362Z,28.10
2019-06-07T18:50:01.631Z,28.00
2019-06-07T18:52:33.589Z,27.80
2019-06-07T18:55:08.542Z,27.60
2019-06-07T18:57:38.916Z,27.50
2019-06-07T19:00:11.955Z,27.30
2019-06-07T19:02:42.394Z,27.10
2019-06-07T19:05:13.207Z,26.90
2019-06-07T19:07:43.583Z,26.70
2019-06-07T19:10:15.873Z,26.50
2019-06-07T19:12:48.930Z,26.30
2019-06-07T19:15:20.631Z,26.10
2019-06-07T19:17:52.134Z,25.90
2019-06-07T19:20:23.045Z,25.60
2019-06-07T19:22:54.212Z,25.40
2019-06-07T19:25:24.557Z,25.10
2019-06-07T19:27:55.096Z,24.90
2019-06-07T19:30:25.439Z,24.70
2019-06-07T19:32:57.143Z,24.50
2019-06-07T19:35:27.610Z,24.30
2019-06-07T19:37:58.179Z,24.20
2019-06-07T19:40:28.698Z,24.10
2019-06-07T19:43:00.458Z,23.90
2019-06-07T19:45:31.801Z,23.70
2019-06-07T19:48:02.855Z,23.60
2019-06-07T19:50:33.310Z,23.40
2019-06-07T19:53:04.181Z,23.30
2019-06-07T19:55:34.606Z,23.20
2019-06-07T19:58:05.029Z,23.20
2019-06-07T20:00:35.488Z,23.10
2019-06-07T20:03:06.019Z,23.00
2019-06-07T20:05:36.513Z,22.90
2019-06-07T20:08:06.943Z,22.80
2019-06-07T20:10:37.327Z,22.70
2019-06-07T20:13:07.601Z,22.70
2019-06-07T20:15:38.066Z,22.60
2019-06-07T20:18:08.494Z,22.50
2019-06-07T20:20:38.884Z,22.50
2019-06-07T20:23:09.372Z,22.40
2019-06-07T20:25:39.735Z,22.40
2019-06-07T20:28:10.081Z,22.40
2019-06-07T20:30:40.532Z,22.30
2019-06-07T20:33:10.948Z,22.30
2019-06-07T20:35:41.447Z,22.20
2019-06-07T20:38:11.729Z,22.20
2019-06-07T20:40:42.036Z,22.20
2019-06-07T20:43:12.318Z,22.10
2019-06-07T20:45:42.708Z,22.10
2019-06-07T20:48:13.096Z,22.10
2019-06-07T20:50:43.396Z,22.10
2019-06-07T20:53:13.657Z,22.10
2019-06-07T20:55:44.107Z,22.10
2019-06-07T20:58:14.393Z,22.10
2019-06-07T21:00:44.836Z,22.10
2019-06-07T21:03:15.420Z,22.20
2019-06-07T21:05:46.671Z,22.10
2019-06-07T21:08:16.988Z,22.10
2019-06-07T21:10:47.302Z,22.10
2019-06-07T21:13:17.592Z,22.10
2019-06-07T21:15:55.079Z,22.10
2019-06-07T21:18:25.359Z,22.10
2019-06-07T21:20:56.021Z,22.00
2019-06-07T21:23:26.309Z,22.00
2019-06-07T21:25:56.625Z,22.10
2019-06-07T21:28:26.983Z,22.10
2019-06-07T21:30:57.326Z,22.10
2019-06-07T21:33:27.599Z,22.10
2019-06-07T21:35:57.907Z,22.10
2019-06-07T21:38:28.194Z,22.10
2019-06-07T21:40:58.483Z,22.00
2019-06-07T21:43:28.934Z,22.00
2019-06-07T21:46:05.502Z,22.00
2019-06-07T21:48:31.488Z,22.00
2019-06-07T21:51:02.220Z,21.90
2019-06-07T21:53:32.563Z,21.90
2019-06-07T21:56:03.017Z,21.80
2019-06-07T21:58:34.532Z,21.80
2019-06-07T22:01:12.212Z,21.70
2019-06-07T22:03:44.636Z,21.60
2019-06-07T22:06:15.242Z,21.60
2019-06-07T22:08:45.557Z,21.50
2019-06-07T22:11:15.846Z,21.50
2019-06-07T22:13:46.323Z,21.50
2019-06-07T22:16:28.457Z,21.50
2019-06-07T22:18:48.756Z,21.50
2019-06-07T22:21:19.108Z,21.40
2019-06-07T22:23:49.485Z,21.40
2019-06-07T22:26:20.901Z,21.40
2019-06-07T22:28:51.447Z,21.40
2019-06-07T22:31:21.898Z,21.40
2019-06-07T22:33:52.189Z,21.40
2019-06-07T22:36:22.471Z,21.40
2019-06-07T22:38:52.870Z,21.40
2019-06-07T22:41:23.219Z,21.40
2019-06-07T22:43:53.520Z,21.40
2019-06-07T22:46:36.882Z,21.40
2019-06-07T22:48:56.776Z,21.40
2019-06-07T22:51:27.163Z,21.40
2019-06-07T22:53:57.562Z,21.30
2019-06-07T22:56:35.590Z,21.20
2019-06-07T22:59:06.014Z,21.20
2019-06-07T23:01:36.431Z,21.20
2019-06-07T23:04:06.906Z,21.20
2019-06-07T23:06:37.315Z,21.20
2019-06-07T23:09:08.862Z,21.20
2019-06-07T23:11:39.321Z,21.20
2019-06-07T23:14:09.639Z,21.20
2019-06-07T23:16:54.355Z,21.20
2019-06-07T23:19:13.799Z,21.20
2019-06-07T23:21:44.175Z,21.20
2019-06-07T23:24:16.508Z,21.20
2019-06-07T23:26:47.070Z,21.20
2019-06-07T23:29:18.575Z,21.20
2019-06-07T23:31:49.017Z,21.20
2019-06-07T23:34:19.385Z,21.20
2019-06-07T23:36:49.711Z,21.20
2019-06-07T23:39:20.871Z,21.20
2019-06-07T23:41:51.998Z,21.10
2019-06-07T23:44:22.537Z,21.10
2019-06-07T23:46:52.909Z,21.10
2019-06-07T23:49:23.188Z,21.10
2019-06-07T23:52:07.222Z,21.10
2019-06-07T23:54:37.649Z,21.10
2019-06-07T23:57:08.026Z,21.10
2019-06-07T23:59:38.395Z,21.10
